createdAt,value
2023-04-16T06:29:01.110Z,9.37
2023-04-16T06:34:03.203Z,9.57
2023-04-16T06:39:05.275Z,8.27
2023-04-16T06:44:07.339Z,8.80
2023-04-16T06:49:09.601Z,8.30
2023-04-16T06:54:11.871Z,8.57
2023-04-16T06:59:13.943Z,7.65
2023-04-16T07:04:16.377Z,8.40
2023-04-16T07:09:18.465Z,8.13
2023-04-16T07:14:20.735Z,8.18
2023-04-16T07:19:22.847Z,7.03
2023-04-16T07:24:25.162Z,8.50
2023-04-16T07:29:27.277Z,7.87
2023-04-16T07:34:29.344Z,6.53
2023-04-16T07:39:31.425Z,4.77
2023-04-16T07:44:33.577Z,6.20
2023-04-16T07:49:35.790Z,6.07
2023-04-16T07:54:37.859Z,5.63
2023-04-16T07:59:40.014Z,4.28
2023-04-16T08:04:45.399Z,4.93
2023-04-16T08:09:50.713Z,4.30
2023-04-16T08:14:52.831Z,5.40
2023-04-16T08:19:54.992Z,5.40
2023-04-16T08:24:57.098Z,4.82
2023-04-16T08:29:59.167Z,4.10
2023-04-16T08:35:01.371Z,4.15
2023-04-16T08:40:04.008Z,7.78
2023-04-16T08:45:16.803Z,4.30
2023-04-16T08:50:28.380Z,4.90
2023-04-16T08:55:36.945Z,5.85
2023-04-16T09:00:41.014Z,4.83
2023-04-16T09:05:44.142Z,3.30
2023-04-16T09:10:46.875Z,4.57
2023-04-16T09:15:55.264Z,3.55
2023-04-16T09:20:57.626Z,5.50
2023-04-16T09:26:00.364Z,5.03
2023-04-16T09:31:13.568Z,3.95
2023-04-16T09:36:23.422Z,4.17
2023-04-16T09:41:28.342Z,4.37
2023-04-16T09:46:31.951Z,4.40
2023-04-16T09:51:37.747Z,4.17
2023-04-16T09:56:42.110Z,5.70
2023-04-16T10:01:46.778Z,3.80
2023-04-16T10:07:05.872Z,3.78
2023-04-16T10:12:08.697Z,6.27
2023-04-16T10:17:11.004Z,5.03
2023-04-16T10:22:13.790Z,4.00
2023-04-16T10:27:17.262Z,4.80
2023-04-16T10:32:21.779Z,3.45
2023-04-16T10:37:31.400Z,4.32
2023-04-16T10:42:33.650Z,3.43
2023-04-16T10:47:40.445Z,5.57
2023-04-16T10:52:43.006Z,3.55
2023-04-16T10:57:49.731Z,3.85
2023-04-16T11:02:54.953Z,2.87
2023-04-16T11:08:14.445Z,3.60
2023-04-16T11:13:18.753Z,4.15
2023-04-16T11:18:20.838Z,2.70
2023-04-16T11:23:22.975Z,3.92
2023-04-16T11:28:35.869Z,2.80
2023-04-16T11:33:38.715Z,2.03
2023-04-16T11:38:43.584Z,2.33
2023-04-16T11:43:46.082Z,2.67
2023-04-16T11:48:56.175Z,3.03
2023-04-16T11:53:58.794Z,1.77
2023-04-16T11:59:11.808Z,3.45
2023-04-16T12:04:16.495Z,2.42
2023-04-16T12:09:27.692Z,2.53
2023-04-16T12:14:30.843Z,2.28
2023-04-16T12:19:33.008Z,1.90
2023-04-16T12:24:36.927Z,2.10
2023-04-16T12:29:39.361Z,1.80
2023-04-16T12:34:51.474Z,2.42
2023-04-16T12:39:54.284Z,3.45
2023-04-16T12:44:56.415Z,3.50
2023-04-16T12:49:59.292Z,2.20
2023-04-16T12:55:02.807Z,2.95
2023-04-16T13:00:06.649Z,3.13
2023-04-16T13:05:08.984Z,2.50
2023-04-16T13:10:12.148Z,2.25
2023-04-16T13:15:14.350Z,3.47
2023-04-16T13:20:16.547Z,1.63
2023-04-16T13:25:18.718Z,3.15
2023-04-16T13:30:20.775Z,3.90
2023-04-16T13:35:23.049Z,2.57
2023-04-16T13:40:25.150Z,2.40
2023-04-16T13:45:28.008Z,1.73
2023-04-16T13:50:30.429Z,4.53
2023-04-16T13:55:32.594Z,2.10
2023-04-16T14:00:34.762Z,2.47
2023-04-16T14:05:36.899Z,2.13
2023-04-16T14:10:38.955Z,2.97
2023-04-16T14:15:41.037Z,2.85
2023-04-16T14:20:43.635Z,2.05
2023-04-16T14:25:45.766Z,1.53
2023-04-16T14:30:48.152Z,1.98
2023-04-16T14:35:51.453Z,1.58
2023-04-16T14:40:53.578Z,1.97
2023-04-16T14:45:57.116Z,2.37
2023-04-16T14:50:59.201Z,2.47
2023-04-16T14:56:01.673Z,1.80
2023-04-16T15:01:03.888Z,1.77
2023-04-16T15:06:06.185Z,2.37
2023-04-16T15:11:08.279Z,1.90
2023-04-16T15:16:10.419Z,2.97
2023-04-16T15:21:12.897Z,1.83
2023-04-16T15:26:15.375Z,1.92
2023-04-16T15:31:17.572Z,1.67
2023-04-16T15:36:19.918Z,1.42
2023-04-16T15:41:22.075Z,1.35
2023-04-16T15:46:24.252Z,1.43
2023-04-16T15:51:26.790Z,2.13
2023-04-16T15:56:28.901Z,2.08
2023-04-16T16:01:31.278Z,2.03
2023-04-16T16:06:33.415Z,2.70
2023-04-16T16:11:38.398Z,2.80
2023-04-16T16:16:40.858Z,1.92
2023-04-16T16:21:43.042Z,1.63
2023-04-16T16:26:45.283Z,2.35
2023-04-16T16:31:47.469Z,2.50
2023-04-16T16:36:49.729Z,2.93
2023-04-16T16:41:54.891Z,2.90
2023-04-16T16:46:57.085Z,2.15
2023-04-16T16:51:59.185Z,3.10
2023-04-16T16:57:02.716Z,2.80
2023-04-16T17:02:05.813Z,2.70
2023-04-16T17:07:07.930Z,2.70
2023-04-16T17:12:10.041Z,2.23
2023-04-16T17:17:12.191Z,2.97
2023-04-16T17:22:14.276Z,1.92
2023-04-16T17:27:16.453Z,2.80
2023-04-16T17:32:18.711Z,3.00
2023-04-16T17:37:21.062Z,2.50
2023-04-16T17:42:24.561Z,2.17
2023-04-16T17:47:26.712Z,3.73
2023-04-16T17:52:28.976Z,3.37
2023-04-16T17:57:31.557Z,2.58
2023-04-16T18:02:33.731Z,3.33
2023-04-16T18:07:36.495Z,4.18
2023-04-16T18:12:38.956Z,3.72
2023-04-16T18:17:41.267Z,3.10
2023-04-16T18:22:43.394Z,5.73
2023-04-16T18:27:46.151Z,6.05
2023-04-16T18:33:10.609Z,3.65
2023-04-16T18:38:10.350Z,3.57
2023-04-16T18:43:12.503Z,3.90
2023-04-16T18:48:14.641Z,3.12
2023-04-16T18:53:16.848Z,3.37
2023-04-16T18:58:18.938Z,4.28
2023-04-16T19:03:21.535Z,3.67
2023-04-16T19:08:23.783Z,3.87
2023-04-16T19:13:26.047Z,3.60
2023-04-16T19:18:28.162Z,3.50
2023-04-16T19:23:30.413Z,3.55
2023-04-16T19:28:32.538Z,3.53
2023-04-16T19:33:35.467Z,3.92
2023-04-16T19:38:37.536Z,3.85
2023-04-16T19:43:39.664Z,3.90
2023-04-16T19:48:41.805Z,3.53
2023-04-16T19:53:43.855Z,3.42
2023-04-16T19:58:46.060Z,4.27
2023-04-16T20:03:48.239Z,4.20
2023-04-16T20:08:50.415Z,3.55
2023-04-16T20:13:52.465Z,3.12
2023-04-16T20:18:54.590Z,3.63
2023-04-16T20:23:56.781Z,2.70
2023-04-16T20:28:59.053Z,4.10
2023-04-16T20:34:01.289Z,3.73
2023-04-16T20:39:07.079Z,4.93
2023-04-16T20:44:10.022Z,3.20
2023-04-16T20:49:13.853Z,3.07
2023-04-16T20:54:15.966Z,3.60
2023-04-16T20:59:18.036Z,2.90
2023-04-16T21:04:20.303Z,3.30
2023-04-16T21:09:23.455Z,2.70
2023-04-16T21:14:25.639Z,3.72
2023-04-16T21:19:27.741Z,3.30
2023-04-16T21:24:31.856Z,4.40
2023-04-16T21:29:33.938Z,2.90
2023-04-16T21:34:36.009Z,5.00
2023-04-16T21:39:38.064Z,4.27
2023-04-16T21:44:40.538Z,4.17
2023-04-16T21:49:42.608Z,3.20
2023-04-16T21:54:45.444Z,3.45
2023-04-16T21:59:47.543Z,2.83
2023-04-16T22:04:50.408Z,3.20
2023-04-16T22:09:53.353Z,3.97
2023-04-16T22:15:02.450Z,3.03
2023-04-16T22:20:07.171Z,2.78
2023-04-16T22:25:10.118Z,2.97
2023-04-16T22:30:13.194Z,3.37
2023-04-16T22:35:15.548Z,2.63
2023-04-16T22:40:18.218Z,2.37
2023-04-16T22:45:20.314Z,2.60
2023-04-16T22:50:23.223Z,2.60
2023-04-16T22:55:25.544Z,2.97
2023-04-16T23:00:28.441Z,3.25
2023-04-16T23:05:30.632Z,2.63
2023-04-16T23:10:32.688Z,4.28
2023-04-16T23:15:35.022Z,2.90
2023-04-16T23:20:37.169Z,2.93
2023-04-16T23:25:41.570Z,3.43
2023-04-16T23:30:43.626Z,2.60
2023-04-16T23:35:47.219Z,2.30
2023-04-16T23:40:49.331Z,2.90
2023-04-16T23:45:51.461Z,3.03
2023-04-16T23:50:53.838Z,2.53
2023-04-16T23:55:55.978Z,2.93
